createdAt,value
2022-10-15T00:01:26.284Z,88.00
2022-10-15T00:03:53.972Z,83.32
2022-10-15T00:06:21.901Z,82.88
2022-10-15T00:08:49.752Z,83.82
2022-10-15T00:11:21.529Z,89.97
2022-10-15T00:13:49.946Z,85.60
2022-10-15T00:16:20.943Z,91.68
2022-10-15T00:18:48.828Z,89.15
2022-10-15T00:21:18.190Z,89.60
2022-10-15T00:23:46.378Z,94.13
2022-10-15T00:26:24.819Z,90.10
2022-10-15T00:28:55.152Z,88.95
2022-10-15T00:31:26.382Z,84.40
2022-10-15T00:33:56.086Z,84.85
2022-10-15T00:36:28.993Z,87.88
2022-10-15T00:38:56.511Z,92.57
2022-10-15T00:41:32.935Z,90.47
2022-10-15T00:44:21.575Z,84.55
2022-10-15T00:46:58.811Z,85.88
2022-10-15T00:49:30.568Z,82.50
2022-10-15T00:52:04.058Z,91.60
2022-10-15T00:54:39.686Z,88.65
2022-10-15T00:57:08.258Z,87.53
2022-10-15T00:59:41.486Z,92.38
2022-10-15T01:02:09.675Z,84.68
2022-10-15T01:04:37.597Z,87.07
2022-10-15T01:07:05.061Z,88.85
2022-10-15T01:09:33.527Z,92.22
2022-10-15T01:12:01.385Z,83.07
2022-10-15T01:14:56.089Z,88.57
2022-10-15T01:17:39.077Z,88.85
2022-10-15T01:20:15.781Z,85.50
2022-10-15T01:23:13.222Z,88.60
2022-10-15T01:26:07.849Z,86.22
2022-10-15T01:28:47.637Z,83.75
2022-10-15T01:31:28.254Z,80.88
2022-10-15T01:34:10.343Z,84.25
2022-10-15T01:36:47.791Z,81.95
2022-10-15T01:39:15.098Z,83.50
2022-10-15T01:41:54.271Z,91.13
2022-10-15T01:44:30.404Z,77.70
2022-10-15T01:47:37.815Z,83.13
2022-10-15T01:50:07.916Z,83.82
2022-10-15T01:52:38.539Z,75.85
2022-10-15T01:55:09.765Z,78.80
2022-10-15T01:57:40.601Z,79.07
2022-10-15T02:00:08.911Z,89.43
2022-10-15T02:02:42.697Z,79.72
2022-10-15T02:05:16.147Z,79.95
2022-10-15T02:07:59.060Z,76.22
2022-10-15T02:11:03.760Z,78.95
2022-10-15T02:13:56.100Z,76.22
2022-10-15T02:16:30.721Z,84.25
2022-10-15T02:19:09.202Z,80.70
2022-10-15T02:21:45.019Z,80.50
2022-10-15T02:24:16.106Z,81.07
2022-10-15T02:26:44.690Z,91.80
2022-10-15T02:29:19.755Z,74.90
2022-10-15T02:34:19.742Z,86.40
2022-10-15T02:36:47.786Z,88.25
2022-10-15T02:39:20.200Z,74.43
2022-10-15T02:41:48.842Z,84.68
2022-10-15T02:44:16.266Z,76.10
2022-10-15T02:46:43.846Z,75.90
2022-10-15T02:49:12.397Z,73.93
2022-10-15T02:51:39.824Z,71.30
2022-10-15T02:54:08.347Z,79.45
2022-10-15T02:56:39.151Z,72.68
2022-10-15T02:59:07.350Z,71.55
2022-10-15T03:01:35.105Z,76.82
2022-10-15T03:04:03.283Z,76.53
2022-10-15T03:06:31.730Z,76.22
2022-10-15T03:08:59.667Z,74.65
2022-10-15T03:11:27.081Z,73.57
2022-10-15T03:13:54.497Z,70.05
2022-10-15T03:16:22.054Z,69.85
2022-10-15T03:18:49.757Z,71.10
2022-10-15T03:21:19.048Z,70.05
2022-10-15T03:23:46.821Z,66.20
2022-10-15T03:26:19.289Z,72.70
2022-10-15T03:28:46.711Z,69.43
2022-10-15T03:31:22.350Z,74.22
2022-10-15T03:33:51.374Z,68.05
2022-10-15T03:36:23.159Z,70.90
2022-10-15T03:38:50.654Z,62.88
2022-10-15T03:41:18.034Z,68.65
2022-10-15T03:43:47.349Z,63.50
2022-10-15T03:46:15.956Z,67.57
2022-10-15T03:48:50.474Z,65.28
2022-10-15T03:51:22.696Z,70.97
2022-10-15T03:53:56.404Z,69.32
2022-10-15T03:56:24.282Z,66.65
2022-10-15T03:58:51.869Z,66.57
2022-10-15T04:01:19.738Z,70.68
2022-10-15T04:03:47.257Z,71.80
2022-10-15T04:06:17.365Z,72.85
2022-10-15T04:08:46.112Z,67.30
2022-10-15T04:11:25.720Z,71.22
2022-10-15T04:14:02.604Z,73.43
2022-10-15T04:16:33.663Z,69.45
2022-10-15T04:19:08.774Z,70.03
2022-10-15T04:21:38.802Z,72.25
2022-10-15T04:24:07.038Z,76.00
2022-10-15T04:26:37.645Z,74.35
2022-10-15T04:29:05.393Z,72.55
2022-10-15T04:31:33.485Z,61.83
2022-10-15T04:34:01.937Z,68.93
2022-10-15T04:36:29.753Z,70.65
2022-10-15T04:39:08.653Z,69.82
2022-10-15T04:41:41.761Z,70.30
2022-10-15T04:44:22.809Z,70.18
2022-10-15T04:46:55.663Z,87.18
2022-10-15T04:49:49.002Z,84.93
2022-10-15T04:52:51.072Z,79.53
2022-10-15T04:55:18.847Z,78.45
2022-10-15T04:57:46.258Z,78.05
2022-10-15T05:00:14.846Z,81.47
2022-10-15T05:03:00.525Z,88.20
2022-10-15T05:05:47.773Z,90.22
2022-10-15T05:08:15.382Z,86.15
2022-10-15T05:11:07.654Z,88.32
2022-10-15T05:13:35.921Z,73.55
2022-10-15T05:16:31.541Z,84.40
2022-10-15T05:19:03.565Z,71.30
2022-10-15T05:21:33.605Z,75.13
2022-10-15T05:24:06.422Z,76.53
2022-10-15T05:26:56.758Z,80.40
2022-10-15T05:29:24.664Z,80.68
2022-10-15T05:31:52.682Z,99.40
2022-10-15T05:34:24.758Z,90.70
2022-10-15T05:36:57.922Z,83.53
2022-10-15T05:39:25.311Z,84.32
2022-10-15T05:41:54.394Z,95.43
2022-10-15T05:44:29.983Z,90.53
2022-10-15T05:46:57.340Z,87.93
2022-10-15T05:49:24.733Z,97.05
2022-10-15T05:51:59.335Z,85.53
2022-10-15T05:54:46.597Z,82.60
2022-10-15T05:57:13.984Z,85.22
2022-10-15T05:59:41.351Z,84.05
2022-10-15T06:02:15.923Z,82.07
2022-10-15T06:04:43.633Z,88.15
2022-10-15T06:07:11.186Z,80.00
2022-10-15T06:09:38.573Z,79.07
2022-10-15T06:12:05.977Z,75.82
2022-10-15T06:14:33.370Z,80.93
2022-10-15T06:17:00.857Z,80.68
2022-10-15T06:19:28.225Z,83.15
2022-10-15T06:21:55.593Z,88.93
2022-10-15T06:24:23.066Z,77.65
2022-10-15T06:26:50.448Z,76.97
2022-10-15T06:29:17.824Z,76.95
2022-10-15T06:31:45.328Z,69.30
2022-10-15T06:34:12.768Z,65.43
2022-10-15T06:36:40.190Z,69.53
2022-10-15T06:39:07.674Z,68.70
2022-10-15T06:41:35.217Z,83.95
2022-10-15T06:44:02.581Z,72.70
2022-10-15T06:46:29.962Z,79.05
2022-10-15T06:48:57.487Z,78.53
2022-10-15T06:51:24.906Z,74.57
2022-10-15T06:53:52.295Z,77.57
2022-10-15T06:56:20.167Z,68.90
2022-10-15T06:58:47.544Z,69.28
2022-10-15T07:01:15.167Z,69.03
2022-10-15T07:03:42.778Z,66.72
2022-10-15T07:06:10.300Z,75.38
2022-10-15T07:08:37.929Z,70.82
2022-10-15T07:11:07.110Z,70.78
2022-10-15T07:13:35.128Z,73.95
2022-10-15T07:16:11.671Z,72.28
2022-10-15T07:18:40.292Z,74.75
2022-10-15T07:23:38.468Z,69.57
2022-10-15T07:26:08.008Z,80.10
2022-10-15T07:28:35.488Z,68.65
2022-10-15T07:31:06.733Z,75.18
2022-10-15T07:33:35.093Z,63.17
2022-10-15T07:36:08.107Z,67.35
2022-10-15T07:38:36.554Z,71.20
2022-10-15T07:41:04.726Z,69.95
2022-10-15T07:43:33.775Z,73.78
2022-10-15T07:46:01.916Z,74.22
2022-10-15T07:48:29.643Z,70.65
2022-10-15T07:50:58.844Z,73.80
2022-10-15T07:53:26.700Z,67.47
2022-10-15T07:56:06.813Z,74.40
2022-10-15T07:58:35.709Z,70.60
2022-10-15T08:01:05.051Z,70.32
2022-10-15T08:03:32.779Z,73.50
2022-10-15T08:06:01.910Z,68.70
2022-10-15T08:08:30.071Z,70.18
2022-10-15T08:10:57.949Z,67.00
2022-10-15T08:13:25.725Z,69.70
2022-10-15T08:15:57.854Z,67.85
2022-10-15T08:20:54.994Z,68.45
2022-10-15T08:23:22.427Z,68.88
2022-10-15T08:25:50.303Z,76.75
2022-10-15T08:28:17.751Z,74.63
2022-10-15T08:30:45.194Z,76.15
2022-10-15T08:33:12.884Z,75.15
2022-10-15T08:35:43.823Z,69.75
2022-10-15T08:38:14.806Z,70.82
2022-10-15T08:40:54.726Z,71.85
2022-10-15T08:43:37.514Z,72.38
2022-10-15T08:46:11.563Z,72.63
2022-10-15T08:48:46.177Z,68.57
2022-10-15T08:51:22.832Z,78.53
2022-10-15T08:53:53.840Z,72.25
2022-10-15T08:56:34.642Z,77.40
2022-10-15T08:59:13.210Z,73.20
2022-10-15T09:02:13.557Z,77.95
2022-10-15T09:04:50.551Z,74.63
2022-10-15T09:07:33.400Z,69.72
2022-10-15T09:10:57.946Z,76.22
2022-10-15T09:13:25.425Z,70.18
2022-10-15T09:16:01.193Z,77.43
2022-10-15T09:18:32.402Z,75.35
2022-10-15T09:21:01.348Z,67.88
2022-10-15T09:23:32.234Z,81.82
2022-10-15T09:26:32.743Z,78.78
2022-10-15T09:29:15.545Z,72.32
2022-10-15T09:32:04.152Z,76.82
2022-10-15T09:35:00.335Z,75.50
2022-10-15T09:37:27.729Z,70.28
2022-10-15T09:40:22.192Z,69.32
2022-10-15T09:42:51.912Z,80.57
2022-10-15T09:45:20.238Z,71.93
2022-10-15T09:47:47.760Z,69.40
2022-10-15T09:50:15.814Z,83.97
2022-10-15T09:53:27.441Z,77.90
2022-10-15T09:56:06.209Z,73.75
2022-10-15T09:58:52.253Z,69.68
2022-10-15T10:01:29.818Z,74.15
2022-10-15T10:04:19.091Z,79.20
2022-10-15T10:06:59.231Z,78.80
2022-10-15T10:09:33.385Z,82.78
2022-10-15T10:12:18.069Z,81.63
2022-10-15T10:14:55.033Z,76.68
2022-10-15T10:17:25.257Z,74.03
2022-10-15T10:20:15.923Z,77.28
2022-10-15T10:22:50.472Z,76.32
2022-10-15T10:25:29.172Z,78.63
2022-10-15T10:28:03.563Z,78.05
2022-10-15T10:30:52.999Z,80.13
2022-10-15T10:33:32.545Z,76.13
2022-10-15T10:36:01.135Z,88.38
2022-10-15T10:38:40.192Z,77.82
2022-10-15T10:41:11.881Z,83.30
2022-10-15T10:43:41.620Z,84.65
2022-10-15T10:46:15.029Z,79.82
2022-10-15T10:48:54.083Z,77.15
2022-10-15T10:51:27.025Z,75.85
2022-10-15T10:54:06.234Z,76.95
2022-10-15T10:56:43.919Z,81.78
2022-10-15T10:59:17.500Z,80.68
2022-10-15T11:01:45.575Z,81.78
2022-10-15T11:04:25.728Z,77.68
2022-10-15T11:07:06.798Z,77.00
2022-10-15T11:10:04.153Z,81.65
2022-10-15T11:13:04.082Z,81.00
2022-10-15T11:16:22.106Z,82.72
2022-10-15T11:18:57.618Z,80.78
2022-10-15T11:21:42.139Z,77.75
2022-10-15T11:24:37.808Z,77.68
2022-10-15T11:27:36.193Z,76.75
2022-10-15T11:30:03.556Z,81.35
2022-10-15T11:33:07.047Z,83.90
2022-10-15T11:35:52.346Z,75.43
2022-10-15T11:38:32.576Z,83.28
2022-10-15T11:41:27.687Z,73.57
2022-10-15T11:44:24.830Z,79.90
2022-10-15T11:47:10.600Z,78.25
2022-10-15T11:50:16.635Z,74.35
2022-10-15T11:53:10.079Z,78.68
2022-10-15T11:55:46.890Z,77.20
2022-10-15T11:58:28.434Z,78.50
2022-10-15T12:01:27.729Z,84.87
2022-10-15T12:04:19.199Z,76.70
2022-10-15T12:06:53.112Z,77.60
2022-10-15T12:09:28.414Z,83.93
2022-10-15T12:12:02.050Z,83.28
2022-10-15T12:14:42.869Z,82.90
2022-10-15T12:17:24.911Z,84.32
2022-10-15T12:19:59.641Z,84.93
2022-10-15T12:22:39.311Z,82.63
2022-10-15T12:25:27.515Z,92.20
2022-10-15T12:28:13.711Z,90.53
2022-10-15T12:30:42.995Z,78.82
2022-10-15T12:33:28.933Z,76.45
2022-10-15T12:36:02.807Z,86.80
2022-10-15T12:38:36.655Z,82.85
2022-10-15T12:41:13.511Z,87.43
2022-10-15T12:43:51.072Z,87.30
2022-10-15T12:46:18.534Z,86.90
2022-10-15T12:48:47.286Z,82.90
2022-10-15T12:51:23.259Z,87.65
2022-10-15T12:53:58.892Z,81.90
2022-10-15T12:56:41.793Z,84.22
2022-10-15T12:59:44.359Z,84.15
2022-10-15T13:02:33.568Z,79.05
2022-10-15T13:05:01.131Z,86.95
2022-10-15T13:07:28.596Z,85.35
2022-10-15T13:09:56.840Z,87.18
2022-10-15T13:12:28.634Z,83.80
2022-10-15T13:15:06.439Z,85.88
2022-10-15T13:17:38.518Z,80.18
2022-10-15T13:20:28.217Z,81.40
2022-10-15T13:23:18.805Z,83.75
2022-10-15T13:26:27.325Z,76.10
2022-10-15T13:28:58.245Z,76.30
2022-10-15T13:31:30.452Z,78.20
2022-10-15T13:34:29.271Z,85.30
2022-10-15T13:37:02.547Z,71.25
2022-10-15T13:39:35.477Z,82.60
2022-10-15T13:42:23.944Z,90.40
2022-10-15T13:45:21.718Z,85.05
2022-10-15T13:47:51.487Z,80.28
2022-10-15T13:50:26.544Z,82.55
2022-10-15T13:53:16.326Z,99.80
2022-10-15T13:55:50.239Z,83.88
2022-10-15T13:58:37.997Z,76.65
2022-10-15T14:01:09.517Z,70.28
2022-10-15T14:03:39.352Z,76.63
2022-10-15T14:06:26.364Z,76.15
2022-10-15T14:08:59.578Z,71.97
2022-10-15T14:11:29.428Z,75.70
2022-10-15T14:13:58.691Z,75.57
2022-10-15T14:16:33.074Z,81.45
2022-10-15T14:19:06.651Z,69.50
2022-10-15T14:21:35.697Z,65.00
2022-10-15T14:24:06.329Z,67.32
2022-10-15T14:26:35.098Z,71.50
2022-10-15T14:29:03.044Z,70.97
2022-10-15T14:31:41.032Z,71.78
2022-10-15T14:34:31.366Z,69.53
2022-10-15T14:36:58.931Z,76.75
2022-10-15T14:39:36.123Z,65.00
2022-10-15T14:42:25.864Z,72.45
2022-10-15T14:44:54.007Z,72.43
2022-10-15T14:47:27.519Z,65.22
2022-10-15T14:49:59.832Z,65.20
2022-10-15T14:52:30.418Z,69.60
2022-10-15T14:55:27.033Z,75.03
2022-10-15T14:57:55.019Z,69.00
2022-10-15T15:00:33.935Z,58.33
2022-10-15T15:03:04.765Z,63.42
2022-10-15T15:05:44.450Z,58.38
2022-10-15T15:08:12.164Z,68.22
2022-10-15T15:10:40.056Z,78.45
2022-10-15T15:13:10.282Z,67.38
2022-10-15T15:15:41.908Z,74.22
2022-10-15T15:18:11.125Z,72.63
2022-10-15T15:20:40.607Z,74.85
2022-10-15T15:23:20.614Z,76.65
2022-10-15T15:25:49.146Z,80.45
2022-10-15T15:28:20.541Z,72.50
2022-10-15T15:30:58.794Z,83.47
2022-10-15T15:33:28.279Z,72.07
2022-10-15T15:36:03.942Z,72.15
2022-10-15T15:38:31.991Z,79.13
2022-10-15T15:41:14.022Z,85.03
2022-10-15T15:43:42.490Z,71.07
2022-10-15T15:46:10.338Z,75.00
2022-10-15T15:48:37.898Z,80.60
2022-10-15T15:51:14.796Z,79.65
2022-10-15T15:53:42.177Z,77.47
2022-10-15T15:56:09.612Z,77.07
2022-10-15T15:58:37.057Z,87.88
2022-10-15T16:01:04.510Z,80.88
2022-10-15T16:03:31.939Z,81.18
2022-10-15T16:05:59.327Z,77.78
2022-10-15T16:08:26.693Z,86.65
2022-10-15T16:10:54.075Z,82.00
2022-10-15T16:13:21.464Z,79.65
2022-10-15T16:15:48.843Z,83.63
2022-10-15T16:18:16.239Z,85.90
2022-10-15T16:20:48.400Z,81.47
2022-10-15T16:23:17.057Z,83.65
2022-10-15T16:25:44.795Z,88.45
2022-10-15T16:28:12.245Z,93.82
2022-10-15T16:30:39.624Z,87.82
2022-10-15T16:38:07.560Z,85.95
2022-10-15T16:40:35.424Z,90.75
2022-10-15T16:43:02.985Z,89.35
2022-10-15T16:45:30.422Z,91.95
2022-10-15T16:47:57.851Z,93.50
2022-10-15T16:50:25.242Z,93.15
2022-10-15T16:52:52.607Z,81.10
2022-10-15T16:55:20.034Z,95.90
2022-10-15T16:57:47.421Z,91.68
2022-10-15T17:00:14.918Z,96.15
2022-10-15T17:02:42.294Z,90.10
2022-10-15T17:05:09.794Z,92.72
2022-10-15T17:07:37.157Z,85.63
2022-10-15T17:10:04.967Z,83.78
2022-10-15T17:12:32.334Z,97.55
2022-10-15T17:14:59.712Z,97.95
2022-10-15T17:17:27.087Z,89.05
2022-10-15T17:19:54.505Z,97.90
2022-10-15T17:22:21.958Z,95.18
2022-10-15T17:24:49.650Z,95.82
2022-10-15T17:27:18.133Z,95.50
2022-10-15T17:29:45.595Z,97.35
2022-10-15T17:32:13.030Z,88.13
2022-10-15T17:34:40.442Z,89.85
2022-10-15T17:37:07.962Z,95.32
2022-10-15T17:39:35.590Z,93.82
2022-10-15T17:42:03.034Z,94.45
2022-10-15T17:44:30.539Z,86.93
2022-10-15T17:46:57.963Z,90.60
2022-10-15T17:49:28.704Z,96.00
2022-10-15T17:51:56.134Z,89.53
2022-10-15T17:54:23.619Z,87.07
2022-10-15T17:56:51.027Z,91.32
2022-10-15T17:59:18.461Z,82.78
2022-10-15T18:02:01.367Z,85.70
2022-10-15T18:04:32.933Z,82.47
2022-10-15T18:07:00.446Z,86.80
2022-10-15T18:09:28.453Z,84.57
2022-10-15T18:12:03.103Z,82.95
2022-10-15T18:14:34.917Z,87.70
2022-10-15T18:17:02.394Z,91.60
2022-10-15T18:19:29.995Z,81.25
2022-10-15T18:21:57.880Z,86.28
2022-10-15T18:24:25.598Z,98.28
2022-10-15T18:26:53.601Z,86.60
2022-10-15T18:29:22.647Z,71.18
2022-10-15T18:31:56.299Z,76.00
2022-10-15T18:34:25.043Z,75.50
2022-10-15T18:36:52.405Z,74.93
2022-10-15T18:39:21.631Z,79.38
2022-10-15T18:41:49.121Z,84.15
2022-10-15T18:44:18.382Z,76.10
2022-10-15T18:46:45.909Z,80.68
2022-10-15T18:49:15.242Z,77.40
2022-10-15T18:51:45.803Z,70.50
2022-10-15T18:54:13.769Z,73.32
2022-10-15T18:56:41.558Z,69.10
2022-10-15T18:59:08.982Z,71.35
2022-10-15T19:01:38.909Z,69.55
2022-10-15T19:04:08.879Z,70.10
2022-10-15T19:06:39.365Z,74.60
2022-10-15T19:09:09.646Z,75.57
2022-10-15T19:11:38.450Z,76.15
2022-10-15T19:14:06.634Z,78.55
2022-10-15T19:16:35.367Z,72.57
2022-10-15T19:19:05.453Z,74.65
2022-10-15T19:21:32.979Z,73.97
2022-10-15T19:24:00.475Z,76.07
2022-10-15T19:26:28.534Z,66.60
2022-10-15T19:28:57.484Z,77.05
2022-10-15T19:31:29.041Z,73.72
2022-10-15T19:34:00.153Z,80.93
2022-10-15T19:36:35.362Z,72.68
2022-10-15T19:39:08.552Z,66.97
2022-10-15T19:41:38.079Z,68.68
2022-10-15T19:44:08.162Z,70.05
2022-10-15T19:46:38.863Z,76.20
2022-10-15T19:49:07.972Z,70.15
2022-10-15T19:51:36.763Z,69.18
2022-10-15T19:54:06.997Z,68.85
2022-10-15T19:56:35.661Z,61.78
2022-10-15T19:59:05.886Z,64.25
2022-10-15T20:01:33.917Z,64.45
2022-10-15T20:04:05.864Z,66.10
2022-10-15T20:06:35.849Z,68.65
2022-10-15T20:09:04.141Z,66.97
2022-10-15T20:11:31.792Z,65.78
2022-10-15T20:14:00.194Z,63.95
2022-10-15T20:16:32.409Z,68.00
2022-10-15T20:19:05.659Z,67.05
2022-10-15T20:24:04.409Z,65.70
2022-10-15T20:26:32.441Z,68.53
2022-10-15T20:29:02.121Z,68.93
2022-10-15T20:31:32.969Z,71.40
2022-10-15T20:34:01.377Z,71.72
2022-10-15T20:36:29.718Z,67.40
2022-10-15T20:38:59.429Z,76.05
2022-10-15T20:41:27.728Z,79.70
2022-10-15T20:43:57.191Z,78.35
2022-10-15T20:46:33.772Z,77.35
2022-10-15T20:49:08.523Z,71.60
2022-10-15T20:51:38.559Z,79.13
2022-10-15T20:54:06.504Z,77.50
2022-10-15T20:56:33.979Z,86.68
2022-10-15T20:59:01.362Z,80.78
2022-10-15T21:01:28.795Z,77.10
2022-10-15T21:03:56.238Z,80.18
2022-10-15T21:06:24.042Z,81.10
2022-10-15T21:08:51.487Z,75.95
2022-10-15T21:11:19.302Z,80.65
2022-10-15T21:13:49.779Z,80.20
2022-10-15T21:16:17.383Z,84.05
2022-10-15T21:18:44.898Z,88.85
2022-10-15T21:21:14.928Z,84.97
2022-10-15T21:23:43.382Z,98.05
2022-10-15T21:26:13.416Z,92.10
2022-10-15T21:28:41.406Z,94.53
2022-10-15T21:31:11.767Z,99.15
2022-10-15T21:33:40.139Z,95.93
2022-10-15T21:36:21.595Z,96.10
2022-10-15T21:38:56.649Z,93.20
2022-10-15T21:41:25.702Z,101.28
2022-10-15T21:43:53.562Z,97.30
2022-10-15T21:46:21.293Z,99.82
2022-10-15T21:48:49.561Z,102.13
2022-10-15T21:51:25.786Z,99.22
2022-10-15T21:53:54.207Z,96.55
2022-10-15T21:56:22.459Z,105.65
2022-10-15T21:58:50.435Z,108.88
2022-10-15T22:01:30.902Z,112.30
2022-10-15T22:04:01.067Z,100.32
2022-10-15T22:06:28.861Z,97.60
2022-10-15T22:08:57.546Z,96.55
2022-10-15T22:11:28.301Z,104.00
2022-10-15T22:14:01.740Z,86.15
2022-10-15T22:16:29.639Z,89.18
2022-10-15T22:18:57.682Z,86.75
2022-10-15T22:21:36.515Z,89.47
2022-10-15T22:24:12.903Z,91.25
2022-10-15T22:26:43.569Z,93.22
2022-10-15T22:29:19.237Z,81.70
2022-10-15T22:31:46.802Z,73.35
2022-10-15T22:34:14.354Z,78.53
2022-10-15T22:36:41.710Z,75.72
2022-10-15T22:39:12.531Z,74.53
2022-10-15T22:41:42.212Z,70.50
2022-10-15T22:44:13.836Z,71.28
2022-10-15T22:46:45.998Z,71.78
2022-10-15T22:49:14.295Z,74.50
2022-10-15T22:51:42.121Z,70.35
2022-10-15T22:54:09.695Z,71.90
2022-10-15T22:56:38.338Z,70.70
2022-10-15T22:59:06.004Z,71.75
2022-10-15T23:01:35.433Z,65.45
2022-10-15T23:04:05.494Z,68.05
2022-10-15T23:06:35.045Z,62.75
2022-10-15T23:09:04.026Z,65.45
2022-10-15T23:11:39.997Z,68.70
2022-10-15T23:14:11.688Z,72.05
2022-10-15T23:16:41.648Z,61.92
2022-10-15T23:19:21.333Z,63.92
2022-10-15T23:21:51.748Z,72.97
2022-10-15T23:24:21.920Z,66.93
2022-10-15T23:26:50.135Z,72.95
2022-10-15T23:29:20.445Z,72.30
2022-10-15T23:31:48.548Z,67.60
2022-10-15T23:34:22.978Z,62.85
2022-10-15T23:36:50.850Z,70.45
2022-10-15T23:39:21.428Z,63.22
2022-10-15T23:41:48.973Z,64.40
2022-10-15T23:44:16.754Z,65.25
2022-10-15T23:46:44.781Z,70.68
2022-10-15T23:49:14.233Z,70.43
2022-10-15T23:51:43.213Z,79.90
2022-10-15T23:54:18.178Z,73.38
2022-10-15T23:56:48.131Z,73.97
2022-10-15T23:59:19.263Z,73.13
